Flight Track Log - Related Links

Times and Time Zones

All times are in EDT time to prevent confusion due to time zone crossing. See the ASQ4633 flight status page for this flight to view local times or setup timezone preferences in your user account.

Time Position Orientation Groundspeed Altitude Reporting Facility
EDT Latitude Longitude Course Direction KTS MPH feet Rate Location/Type
Thu 07:07:39 PM 44.3447 -73.1339 189° South 209 241 6,600  Level Boston Center
Thu 07:08:37 PM 44.2819 -73.1622 198° South 222 255 8,600 2,250 Climbing Boston Center
Thu 07:09:00 PM 44.0846 -73.2788 190° South  Level FlightAware Approximate
Thu 07:09:39 PM 44.2067 -73.1931 196° South 256 295 11,100  Level Boston Center
Thu 07:10:00 PM 44.0083 -73.3067 196° South  Level FlightAware Approximate
Thu 07:10:39 PM 44.1272 -73.2267 197° South 283 326 12,100  Level Boston Center
Thu 07:11:00 PM 43.9324 -73.3371 196° South  Level FlightAware Approximate
Thu 07:11:37 PM 44.0397 -73.2631 197° South 318 366 13,200  Level Boston Center
Thu 07:12:00 PM 43.8560 -73.3647 194° South  Level FlightAware Approximate
Thu 07:12:38 PM 43.9497 -73.3022 197° South 337 388 14,700  Level Boston Center
Thu 07:13:39 PM 43.8578 -73.3414 197° South 344 396 16,100 1,240 Climbing Boston Center
Thu 07:14:39 PM 43.7678 -73.3803 197° South 344 396 17,200 1,169 Climbing Boston Center
Thu 07:15:37 PM 43.6717 -73.4189 196° South 352 405 18,400 1,169 Climbing Boston Center
Thu 07:16:37 PM 43.5839 -73.4547 196° South 362 417 19,500 1,140 Climbing Boston Center
Thu 07:17:38 PM 43.4856 -73.4961 197° South 362 417 20,700 1,131 Climbing Boston Center
Thu 07:18:39 PM 43.3850 -73.5342 195° South 367 422 21,800 655 Climbing Boston Center
Thu 07:19:37 PM 43.2806 -73.5781 197° South 380 437 22,000 101 Climbing Boston Center
Thu 07:20:38 PM 43.1717 -73.6214 196° South 400 460 22,000 -836 Level Boston Center
Thu 07:21:39 PM 43.0503 -73.6731 197° South 410 472 20,300 -1,669 Descending Boston Center
Thu 07:22:51 PM 42.9517 -73.7167 198° South 394 453 18,300 -1,662 Descending Boston Center
Thu 07:23:49 PM 42.8469 -73.7653 199° South 376 433 16,700 -1,160 Descending Boston Center
Thu 07:24:50 PM 42.7464 -73.8056 196° South 371 427 16,000 -347 Descending Boston Center
Thu 07:25:50 PM 42.6500 -73.8514 199° South 371 427 16,000 50 Level Boston Center
Thu 07:26:49 PM 42.5411 -73.8942 196° South 371 427 16,100  Climbing Boston Center
Thu 07:27:50 PM 42.4531 -73.9342 199° South 371 427 16,000  Descending Boston Center
Thu 07:28:50 PM 42.3442 -73.9822 198° South 371 427 16,100  Climbing Boston Center
Thu 07:29:51 PM 42.2622 -74.0194 199° South 359 413 16,000 -50 Descending Boston Center
Thu 07:30:49 PM 42.1681 -74.0592 197° South 343 395 16,000 -203 Level Boston Center
Thu 07:31:49 PM 42.0922 -74.0964 200° South 313 360 15,600 -496 Descending Boston Center
Thu 07:32:50 PM 42.0253 -74.1253 198° South 279 321 15,000 -836 Descending Boston Center
Thu 07:33:51 PM 41.9622 -74.1544 199° South 248 285 13,900 -1,008 Descending Boston Center
Thu 07:34:49 PM 41.9014 -74.1806 198° South 237 273 13,000 -958 Descending Boston Center
Thu 07:35:50 PM 41.8447 -74.2042 197° South 224 258 12,000 -885 Descending Boston Center
Thu 07:36:51 PM 41.7881 -74.2275 197° South 224 258 11,200 -403 Descending Boston Center
Thu 07:37:49 PM 41.7378 -74.2511 199° South 209 241 11,200 -51 Level Boston Center
Thu 07:38:49 PM 41.6811 -74.2747 197° South 209 241 11,100 -99 Descending Boston Center
Thu 07:39:50 PM 41.6386 -74.3206 219° Southwest 204 235 11,000  Descending Boston Center
Thu 07:40:50 PM 41.6667 -74.3825 301° West 168 193 11,100 50 Climbing Boston Center
Thu 07:41:51 PM 41.7444 -74.3517 16° North 187 215 11,100  Level Boston Center
Thu 07:42:51 PM 41.8178 -74.3231 16° North 243 280 11,100  Level Boston Center
Thu 07:43:49 PM 41.8792 -74.2664 34° Northeast 274 315 11,100  Level Boston Center
Thu 07:44:49 PM 41.8447 -74.2069 128° Southeast 177 204 11,100 -300 Level Boston Center
Thu 07:45:49 PM 41.7842 -74.2081 181° South 166 191 10,500 -744 Descending Boston Center
Thu 07:46:50 PM 41.7381 -74.2317 201° Southwest 181 208 9,600 -750 Descending Boston Center
Thu 07:47:49 PM 41.7961 -74.2444 351° North 70 81 9,000 -252 Descending Boston Center
Thu 07:48:49 PM 41.7869 -74.1719 100° East 152 175 9,100  Climbing Boston Center
Thu 07:49:50 PM 41.7225 -74.1589 171° South 162 186 9,000 -49 Descending Boston Center
Thu 07:50:51 PM 41.6925 -74.2111 232° Southwest 171 197 9,000 50 Level Boston Center
Thu 07:51:49 PM 41.6767 -74.2828 254° West 186 214 9,100 -101 Climbing Boston Center
Thu 07:52:50 PM 41.6508 -74.3461 241° Southwest 201 231 8,800 -787 Descending Boston Center
Thu 07:53:51 PM 41.5836 -74.3633 191° South 205 236 7,500 -812 Descending Boston Center
Thu 07:55:03 PM 41.5167 -74.3836 193° South 231 266 7,000 -185 Descending Boston Center
Thu 07:56:01 PM 41.4544 -74.3622 166° South 223 257 7,100 50 Climbing Boston Center
Thu 07:57:03 PM 41.4975 -74.2917 51° Northeast 187 215 7,100  Level Boston Center
Thu 07:58:03 PM 41.5317 -74.3647 302° West 138 159 7,100  Level Boston Center
Thu 07:59:02 PM 41.4853 -74.3881 201° Southwest 118 136 7,100 -50 Level Boston Center
Thu 08:00:03 PM 41.4267 -74.4058 193° South 153 176 7,000 -50 Descending Boston Center
Thu 08:01:03 PM 41.3786 -74.4208 193° South 191 220 7,000  Level Boston Center
Thu 08:02:02 PM 41.3197 -74.4356 191° South 201 231 7,000  Level Boston Center
Thu 08:03:02 PM 41.2656 -74.4394 183° South 201 231 7,000  Level Boston Center
Thu 08:04:03 PM 41.2686 -74.3789 86° East 129 148 7,000  Level Boston Center
Thu 08:05:16 PM 41.3614 -74.3236 24° Northeast 219 252 7,000  Level Boston Center
Thu 08:06:14 PM 41.4244 -74.2978 17° North 250 288 7,000  Level Boston Center
Thu 08:07:14 PM 41.4758 -74.3325 333° Northwest 219 252 7,000  Level Boston Center
Thu 08:08:14 PM 41.4439 -74.3758 225° Southwest 106 122 7,000  Level Boston Center
Thu 08:09:15 PM 41.3892 -74.4019 200° South 159 183 7,000  Level Boston Center
Thu 08:10:27 PM 41.3431 -74.4197 196° South 191 220 7,000  Level Boston Center
Thu 08:11:26 PM 41.2778 -74.4508 200° South 196 226 7,000 50 Level Boston Center
Thu 08:12:26 PM 41.2497 -74.3919 122° Southeast 147 169 7,100  Climbing Boston Center
Thu 08:13:27 PM 41.3089 -74.3550 25° Northeast 141 162 7,000 -50 Descending Boston Center
Thu 08:14:27 PM 41.3800 -74.3242 18° North 229 264 7,000 38 Level Boston Center
Thu 08:16:06 PM 41.4500 -74.3667 336° Northwest 264 304 7,100 38 Climbing New York TRACON
Thu 08:17:06 PM 41.4000 -74.4000 207° Southwest 209 241 7,100  Level New York TRACON
Thu 08:18:06 PM 41.3500 -74.4167 194° South 236 272 7,100  Level New York TRACON
Thu 08:19:06 PM 41.2833 -74.4500 201° Southwest 232 267 7,100 -368 Level New York TRACON
Thu 08:20:00 PM 41.2333 -74.4667 194° South 236 272 6,400 -500 Descending New York TRACON
Thu 08:21:06 PM 41.1667 -74.5000 201° Southwest 229 264 6,100 -524 Descending New York TRACON
Thu 08:22:06 PM 41.1333 -74.4167 118° Southeast 284 327 5,300 -500 Descending New York TRACON
Thu 08:23:06 PM 41.1167 -74.3333 105° East 279 321 5,100 -100 Descending New York TRACON
Thu 08:24:06 PM 41.0667 -74.2667 135° Southeast 242 278 5,100 -100 Level New York TRACON
Thu 08:25:06 PM 41.0167 -74.2167 143° Southeast 240 276 4,900 -500 Descending New York TRACON
Thu 08:26:06 PM 40.9667 -74.1667 143° Southeast 242 278 4,100 -450 Descending New York TRACON
Thu 08:27:06 PM 40.9167 -74.1167 143° Southeast 211 243 4,000 -350 Descending New York TRACON
Thu 08:28:06 PM 40.8833 -74.0667 131° Southeast 168 193 3,400 -526 Descending New York TRACON
Thu 08:29:00 PM 40.8333 -74.0667 180° South 149 171 3,000 -444 Descending New York TRACON

Login

Don't have an account? Register now (free) for customized features, flight alerts, and more!